New Harbor, ME (Heathkit)

43° 52' 34"N, 69° 29' 40"W, Elevation 65 ft.
Eastern Time

Hourly observations for the last 72 hours

Date Time Temperature (°F) Humi-
dity

(%)
Wind
(mph)
Pressure Rain (in)
Air Dew 6 Hour 1 Hr 3 Hr 6 Hr Day
Alt
(in)
Sea
Level

(mb)
Max Min
20 21:00 60 58 94 SSE 0 G 2 29.94 1013.9 0.00
20 20:00 62 59 76 58 91 SSW 1 G 6 29.94 1013.9 0.00
20 19:00 63 58 85 WSW 3 G 7 29.93 1013.6 0.00
20 18:00 66 61 84 WSW 3 G 8 29.93 1013.6 0.00
20 17:00 68 62 80 SSW 1 G 6 29.93 1013.6 0.00
20 16:00 69 62 79 S 2 G 8 29.93 1013.6 0.00
20 15:00 68 61 79 SW 2 G 7 29.94 1013.9 0.00
20 14:00 76 65 76 45 69 S 4 G 9 29.96 1014.6 0.00
20 13:00 75 63 67 SW 4 G 7 29.99 1015.6 0.00
20 12:00 72 62 71 SW 4 G 8 30.01 1016.3 0.00
20 11:00 67 60 78 SW 2 G 6 30.04 1017.3 0.00
20 10:00 60 55 84 WSW 3 G 5 30.06 1018.0 0.00
20 09:00 54 53 96 SW 2 G 5 30.08 1018.7 0.00
20 08:00 48 48 48 39 99 E 1 G 2 30.07 1018.3 0.00
20 07:00 44 44 99 SW 1 G 2 30.07 1018.3 0.00
20 06:00 44 44 99 SW 1 G 3 30.06 1018.0 0.00
20 05:00 45 45 99 SE 0 G 1 30.06 1018.0 0.00
20 04:00 46 46 99 SSW 2 G 4 30.07 1018.3 0.00
20 03:00 47 47 99 SW 2 G 3 30.07 1018.3 0.00
20 02:00 46 46 54 43 99 SW 2 G 4 30.09 1019.0 0.00
20 01:00 47 47 99 SW 2 G 3 30.09 1019.0 0.00
20 00:00 48 48 99 S 2 G 3 30.12 1020.0 0.00
19 23:00 50 49 98 SSW 1 G 4 30.13 1020.4 0.00
19 22:00 52 51 95 SW 2 G 6 30.13 1020.4 0.00
19 21:00 53 51 94 WSW 3 G 6 30.14 1020.7 0.00
19 20:00 54 51 67 52 90 S 1 G 6 30.16 1021.4 0.00
19 19:00 55 51 85 WSW 4 G 9 30.16 1021.4 0.00
19 18:00 58 52 79 WSW 2 G 8 30.16 1021.4 0.00
19 17:00 61 52 73 SSW 3 G 9 30.16 1021.4 0.00
19 16:00 64 52 66 S 4 G 10 30.17 1021.7 0.00
19 15:00 66 53 63 S 4 G 9 30.17 1021.7 0.00
19 14:00 66 54 68 43 66 S 6 G 11 30.20 1022.7 0.00
19 13:00 67 57 69 SSE 4 G 9 30.21 1023.1 0.00
19 12:00 65 53 64 SSE 2 G 5 30.22 1023.4 0.00
19 11:00 63 51 64 S 4 G 7 30.24 1024.1 0.00
19 10:00 56 50 79 S 2 G 6 30.26 1024.8 0.00
19 09:00 51 47 87 S 3 G 6 30.26 1024.8 0.00
19 08:00 44 44 44 35 99 SW 2 G 6 30.26 1024.8 0.00
19 07:00 41 41 99 SSW 3 G 7 30.25 1024.4 0.00
19 06:00 40 40 99 WSW 2 G 4 30.24 1024.1 0.00
19 05:00 41 41 99 SSW 2 G 5 30.23 1023.7 0.00
19 04:00 42 42 99 SSW 1 G 5 30.23 1023.7 0.00
19 03:00 43 43 99 SW 2 G 4 30.23 1023.7 0.00
19 02:00 43 43 47 38 99 S 2 G 4 30.23 1023.7 0.00
19 01:00 43 43 99 SSW 3 G 4 30.24 1024.1 0.00
19 00:00 44 44 99 SSW 3 G 4 30.25 1024.4 0.00
18 23:00 44 44 99 SSW 3 G 4 30.25 1024.4 0.00
18 22:00 44 44 99 S 1 G 2 30.26 1024.8 0.00
18 21:00 45 45 99 ESE 1 G 1 30.25 1024.4 0.00
18 20:00 47 47 65 46 99 S 1 G 1 30.24 1024.1 0.00
18 19:00 51 49 93 S 0 G 1 30.22 1023.4 0.00
18 18:00 55 50 83 S 1 G 4 30.20 1022.7 0.00
18 17:00 59 52 77 SSE 1 G 4 30.21 1023.1 0.00
18 16:00 61 53 74 SSE 2 G 6 30.20 1022.7 0.00
18 15:00 64 53 67 SSE 1 G 4 30.20 1022.7 0.00
18 14:00 65 52 65 45 63 SE 2 G 4 30.22 1023.4 0.00
18 13:00 63 49 60 SSE 3 G 5 30.23 1023.7 0.00
18 12:00 58 47 66 ESE 4 G 10 30.23 1023.7 0.00
18 11:00 56 46 69 E 6 G 12 30.23 1023.7 0.00
18 10:00 54 46 73 ESE 7 G 14 30.23 1023.7 0.00
18 09:00 51 45 79 ESE 5 G 10 30.22 1023.4 0.00
18 08:00 48 44 51 43 86 ESE 5 G 12 30.21 1023.1 0.00
18 07:00 46 44 92 SE 2 G 7 30.19 1022.4 0.00
18 06:00 46 43 89 ESE 2 G 6 30.18 1022.0 0.00
18 05:00 48 45 88 ESE 2 G 6 30.15 1021.0 0.00
18 04:00 49 46 91 ESE 2 G 4 30.14 1020.7 0.00
18 03:00 50 47 90 ESE 1 G 4 30.13 1020.4 0.00
18 02:00 51 47 57 44 87 SE 2 G 4 30.14 1020.7 0.00
18 01:00 52 48 86 SSE 1 G 6 30.14 1020.7 0.00
18 00:00 50 47 90 SSE 1 G 3 30.12 1020.0 0.00
17 23:00 53 48 84 ESE 2 G 6 30.12 1020.0 0.00
17 22:00 54 49 82 ESE 4 G 11 30.11 1019.7 0.00

Data generated by WxSolution Version 1.9.1.5, Build 2018.05.20.